sensor_id;sensor_type;location;lat;lon;timestamp;P1;durP1;ratioP1;P2;durP2;ratioP2
48679;SDS011;34475;51.658;5.634;2022-12-18T00:00:00;6.8;;;6.6;;
48679;SDS011;34475;51.658;5.634;2022-12-18T00:01:12;6.8;;;6.6;;
48679;SDS011;34475;51.658;5.634;2022-12-18T00:02:00;6.8;;;6.6;;
48679;SDS011;34475;51.658;5.634;2022-12-18T00:03:00;6.8;;;6.6;;
48679;SDS011;34475;51.658;5.634;2022-12-18T00:04:03;6.8;;;6.6;;
48679;SDS011;34475;51.658;5.634;2022-12-18T00:05:00;6.8;;;6.6;;
48679;SDS011;34475;51.658;5.634;2022-12-18T00:06:00;6.8;;;6.6;;
48679;SDS011;34475;51.658;5.634;2022-12-18T00:07:00;6.8;;;6.6;;
48679;SDS011;34475;51.658;5.634;2022-12-18T00:08:02;6.8;;;6.6;;
48679;SDS011;34475;51.658;5.634;2022-12-18T00:09:01;6.8;;;6.6;;
48679;SDS011;34475;51.658;5.634;2022-12-18T00:10:00;6.8;;;6.6;;
48679;SDS011;34475;51.658;5.634;2022-12-18T00:11:08;6.8;;;6.6;;
48679;SDS011;34475;51.658;5.634;2022-12-18T00:12:10;6.8;;;6.6;;
48679;SDS011;34475;51.658;5.634;2022-12-18T00:13:06;6.8;;;6.6;;
48679;SDS011;34475;51.658;5.634;2022-12-18T00:14:00;6.8;;;6.6;;
48679;SDS011;34475;51.658;5.634;2022-12-18T00:15:00;6.8;;;6.6;;
48679;SDS011;34475;51.658;5.634;2022-12-18T00:16:02;6.3;;;6.1;;
48679;SDS011;34475;51.658;5.634;2022-12-18T00:17:00;6.3;;;6.1;;
48679;SDS011;34475;51.658;5.634;2022-12-18T00:18:00;6.3;;;6.1;;
48679;SDS011;34475;51.658;5.634;2022-12-18T00:19:01;6.3;;;6.1;;
48679;SDS011;34475;51.658;5.634;2022-12-18T00:20:00;6.3;;;6.1;;
48679;SDS011;34475;51.658;5.634;2022-12-18T00:21:02;6.3;;;6.1;;
48679;SDS011;34475;51.658;5.634;2022-12-18T00:22:00;6.3;;;6.1;;
48679;SDS011;34475;51.658;5.634;2022-12-18T00:23:00;6.3;;;6.1;;
48679;SDS011;34475;51.658;5.634;2022-12-18T00:24:00;6.3;;;6.1;;
48679;SDS011;34475;51.658;5.634;2022-12-18T00:25:00;6.3;;;6.1;;
48679;SDS011;34475;51.658;5.634;2022-12-18T00:26:01;6.3;;;6.1;;
48679;SDS011;34475;51.658;5.634;2022-12-18T00:27:00;6.3;;;6.1;;
48679;SDS011;34475;51.658;5.634;2022-12-18T00:28:01;6.3;;;6.1;;
48679;SDS011;34475;51.658;5.634;2022-12-18T00:29:05;6.3;;;6.1;;
48679;SDS011;34475;51.658;5.634;2022-12-18T00:30:00;6.3;;;6.1;;
48679;SDS011;34475;51.658;5.634;2022-12-18T00:31:01;6.3;;;6.1;;
48679;SDS011;34475;51.658;5.634;2022-12-18T00:32:00;6.3;;;6.1;;
48679;SDS011;34475;51.658;5.634;2022-12-18T00:33:00;6.3;;;6.1;;
48679;SDS011;34475;51.658;5.634;2022-12-18T00:34:01;6.3;;;6.1;;
48679;SDS011;34475;51.658;5.634;2022-12-18T00:35:00;6.3;;;6.1;;
48679;SDS011;34475;51.658;5.634;2022-12-18T00:36:06;6.3;;;6.1;;
48679;SDS011;34475;51.658;5.634;2022-12-18T00:37:00;6.3;;;6.1;;
48679;SDS011;34475;51.658;5.634;2022-12-18T00:38:00;6.3;;;6.1;;
48679;SDS011;34475;51.658;5.634;2022-12-18T00:39:03;6.3;;;6.1;;
48679;SDS011;34475;51.658;5.634;2022-12-18T00:40:00;6.3;;;6.1;;
48679;SDS011;34475;51.658;5.634;2022-12-18T00:41:01;6.3;;;6.1;;
48679;SDS011;34475;51.658;5.634;2022-12-18T00:42:10;6.3;;;6.1;;
48679;SDS011;34475;51.658;5.634;2022-12-18T00:43:00;6.3;;;6.1;;
48679;SDS011;34475;51.658;5.634;2022-12-18T00:44:00;6.3;;;6.1;;
48679;SDS011;34475;51.658;5.634;2022-12-18T00:45:00;6.3;;;6.1;;
48679;SDS011;34475;51.658;5.634;2022-12-18T00:46:00;6.3;;;6.1;;
48679;SDS011;34475;51.658;5.634;2022-12-18T00:47:00;6.3;;;6.1;;
48679;SDS011;34475;51.658;5.634;2022-12-18T00:48:00;6.3;;;6.1;;
48679;SDS011;34475;51.658;5.634;2022-12-18T00:49:00;6.3;;;6.1;;
48679;SDS011;34475;51.658;5.634;2022-12-18T00:50:00;6.3;;;6.1;;
48679;SDS011;34475;51.658;5.634;2022-12-18T00:51:00;6.3;;;6.1;;
48679;SDS011;34475;51.658;5.634;2022-12-18T00:52:00;6.3;;;6.1;;
48679;SDS011;34475;51.658;5.634;2022-12-18T00:53:00;6.3;;;6.1;;
48679;SDS011;34475;51.658;5.634;2022-12-18T00:54:00;6.3;;;6.1;;
48679;SDS011;34475;51.658;5.634;2022-12-18T00:55:06;6.3;;;6.1;;
48679;SDS011;34475;51.658;5.634;2022-12-18T00:56:00;5.9;;;5.7;;
48679;SDS011;34475;51.658;5.634;2022-12-18T00:57:00;5.9;;;5.7;;
48679;SDS011;34475;51.658;5.634;2022-12-18T00:58:00;5.9;;;5.7;;
48679;SDS011;34475;51.658;5.634;2022-12-18T00:59:00;5.9;;;5.7;;
48679;SDS011;34475;51.658;5.634;2022-12-18T01:00:00;5.9;;;5.7;;
48679;SDS011;34475;51.658;5.634;2022-12-18T01:01:00;5.9;;;5.7;;
48679;SDS011;34475;51.658;5.634;2022-12-18T01:02:00;5.9;;;5.7;;
48679;SDS011;34475;51.658;5.634;2022-12-18T01:03:00;5.9;;;5.7;;
48679;SDS011;34475;51.658;5.634;2022-12-18T01:04:01;5.9;;;5.7;;
48679;SDS011;34475;51.658;5.634;2022-12-18T01:05:00;5.9;;;5.7;;
48679;SDS011;34475;51.658;5.634;2022-12-18T01:06:05;5.9;;;5.7;;
48679;SDS011;34475;51.658;5.634;2022-12-18T01:07:00;5.9;;;5.7;;
48679;SDS011;34475;51.658;5.634;2022-12-18T01:08:00;5.9;;;5.7;;
48679;SDS011;34475;51.658;5.634;2022-12-18T01:09:00;5.9;;;5.7;;
48679;SDS011;34475;51.658;5.634;2022-12-18T01:10:00;5.9;;;5.7;;
48679;SDS011;34475;51.658;5.634;2022-12-18T01:11:01;5.9;;;5.7;;
48679;SDS011;34475;51.658;5.634;2022-12-18T01:12:00;5.9;;;5.7;;
48679;SDS011;34475;51.658;5.634;2022-12-18T01:13:00;5.9;;;5.7;;
48679;SDS011;34475;51.658;5.634;2022-12-18T01:14:00;5.9;;;5.7;;
48679;SDS011;34475;51.658;5.634;2022-12-18T01:15:00;5.9;;;5.7;;
48679;SDS011;34475;51.658;5.634;2022-12-18T01:16:00;6.2;;;6.0;;
48679;SDS011;34475;51.658;5.634;2022-12-18T01:17:02;6.2;;;6.0;;
48679;SDS011;34475;51.658;5.634;2022-12-18T01:18:00;6.2;;;6.0;;
48679;SDS011;34475;51.658;5.634;2022-12-18T01:19:00;6.2;;;6.0;;
48679;SDS011;34475;51.658;5.634;2022-12-18T01:20:00;6.2;;;6.0;;
48679;SDS011;34475;51.658;5.634;2022-12-18T01:21:00;6.2;;;6.0;;
48679;SDS011;34475;51.658;5.634;2022-12-18T01:22:00;6.2;;;6.0;;
48679;SDS011;34475;51.658;5.634;2022-12-18T01:23:00;6.2;;;6.0;;
48679;SDS011;34475;51.658;5.634;2022-12-18T01:24:00;6.2;;;6.0;;
48679;SDS011;34475;51.658;5.634;2022-12-18T01:25:00;6.2;;;6.0;;
48679;SDS011;34475;51.658;5.634;2022-12-18T01:26:10;6.2;;;6.0;;
48679;SDS011;34475;51.658;5.634;2022-12-18T01:27:00;6.2;;;6.0;;
48679;SDS011;34475;51.658;5.634;2022-12-18T01:28:01;6.2;;;6.0;;
48679;SDS011;34475;51.658;5.634;2022-12-18T01:29:00;6.2;;;6.0;;
48679;SDS011;34475;51.658;5.634;2022-12-18T01:30:00;6.2;;;6.0;;
48679;SDS011;34475;51.658;5.634;2022-12-18T01:32:00;6.2;;;6.0;;
48679;SDS011;34475;51.658;5.634;2022-12-18T01:33:00;6.2;;;6.0;;
48679;SDS011;34475;51.658;5.634;2022-12-18T01:34:01;6.2;;;6.0;;
48679;SDS011;34475;51.658;5.634;2022-12-18T01:35:01;5.9;;;5.7;;
48679;SDS011;34475;51.658;5.634;2022-12-18T01:36:00;5.9;;;5.7;;
48679;SDS011;34475;51.658;5.634;2022-12-18T01:37:03;5.9;;;5.7;;
48679;SDS011;34475;51.658;5.634;2022-12-18T01:38:00;5.9;;;5.7;;
48679;SDS011;34475;51.658;5.634;2022-12-18T01:39:03;5.9;;;5.7;;
48679;SDS011;34475;51.658;5.634;2022-12-18T01:40:00;5.9;;;5.7;;
48679;SDS011;34475;51.658;5.634;2022-12-18T01:41:00;5.9;;;5.7;;
48679;SDS011;34475;51.658;5.634;2022-12-18T01:42:02;5.9;;;5.7;;
48679;SDS011;34475;51.658;5.634;2022-12-18T01:43:00;5.9;;;5.7;;
48679;SDS011;34475;51.658;5.634;2022-12-18T01:44:00;5.9;;;5.7;;
48679;SDS011;34475;51.658;5.634;2022-12-18T01:46:00;5.9;;;5.7;;
48679;SDS011;34475;51.658;5.634;2022-12-18T01:47:00;5.9;;;5.7;;
48679;SDS011;34475;51.658;5.634;2022-12-18T01:48:05;5.9;;;5.7;;
48679;SDS011;34475;51.658;5.634;2022-12-18T01:49:01;5.9;;;5.7;;
48679;SDS011;34475;51.658;5.634;2022-12-18T01:50:04;5.9;;;5.7;;
48679;SDS011;34475;51.658;5.634;2022-12-18T01:51:01;5.9;;;5.7;;
48679;SDS011;34475;51.658;5.634;2022-12-18T01:52:00;5.9;;;5.7;;
48679;SDS011;34475;51.658;5.634;2022-12-18T01:53:07;5.9;;;5.7;;
48679;SDS011;34475;51.658;5.634;2022-12-18T01:54:00;5.9;;;5.7;;
48679;SDS011;34475;51.658;5.634;2022-12-18T01:55:03;6.6;;;6.4;;
48679;SDS011;34475;51.658;5.634;2022-12-18T01:56:00;6.6;;;6.4;;
48679;SDS011;34475;51.658;5.634;2022-12-18T01:57:00;6.6;;;6.4;;
48679;SDS011;34475;51.658;5.634;2022-12-18T01:58:01;6.6;;;6.4;;
48679;SDS011;34475;51.658;5.634;2022-12-18T01:59:03;6.6;;;6.4;;
48679;SDS011;34475;51.658;5.634;2022-12-18T02:00:04;6.6;;;6.4;;
48679;SDS011;34475;51.658;5.634;2022-12-18T02:01:00;6.6;;;6.4;;
48679;SDS011;34475;51.658;5.634;2022-12-18T02:02:02;6.6;;;6.4;;
48679;SDS011;34475;51.658;5.634;2022-12-18T02:03:00;6.6;;;6.4;;
48679;SDS011;34475;51.658;5.634;2022-12-18T02:04:26;6.6;;;6.4;;
48679;SDS011;34475;51.658;5.634;2022-12-18T02:05:00;6.6;;;6.4;;
48679;SDS011;34475;51.658;5.634;2022-12-18T02:08:12;6.6;;;6.4;;
48679;SDS011;34475;51.658;5.634;2022-12-18T02:09:11;6.6;;;6.4;;
48679;SDS011;34475;51.658;5.634;2022-12-18T02:10:44;6.6;;;6.4;;
48679;SDS011;34475;51.658;5.634;2022-12-18T02:12:06;6.6;;;6.4;;
48679;SDS011;34475;51.658;5.634;2022-12-18T02:15:07;6.4;;;6.2;;
48679;SDS011;34475;51.658;5.634;2022-12-18T02:17:29;6.4;;;6.2;;
48679;SDS011;34475;51.658;5.634;2022-12-18T02:18:24;6.4;;;6.2;;
48679;SDS011;34475;51.658;5.634;2022-12-18T02:21:46;6.4;;;6.2;;
48679;SDS011;34475;51.658;5.634;2022-12-18T02:23:24;6.4;;;6.2;;
48679;SDS011;34475;51.658;5.634;2022-12-18T02:24:16;6.4;;;6.2;;
48679;SDS011;34475;51.658;5.634;2022-12-18T02:25:13;6.4;;;6.2;;
48679;SDS011;34475;51.658;5.634;2022-12-18T02:26:14;6.4;;;6.2;;
48679;SDS011;34475;51.658;5.634;2022-12-18T02:27:05;6.4;;;6.2;;
48679;SDS011;34475;51.658;5.634;2022-12-18T02:28:02;6.4;;;6.2;;
48679;SDS011;34475;51.658;5.634;2022-12-18T02:29:06;6.4;;;6.2;;
48679;SDS011;34475;51.658;5.634;2022-12-18T02:30:01;6.4;;;6.2;;
48679;SDS011;34475;51.658;5.634;2022-12-18T02:31:03;6.4;;;6.2;;
48679;SDS011;34475;51.658;5.634;2022-12-18T02:32:03;6.4;;;6.2;;
48679;SDS011;34475;51.658;5.634;2022-12-18T02:33:02;6.4;;;6.2;;
48679;SDS011;34475;51.658;5.634;2022-12-18T02:34:03;6.4;;;6.2;;
48679;SDS011;34475;51.658;5.634;2022-12-18T02:35:02;6.7;;;6.5;;
48679;SDS011;34475;51.658;5.634;2022-12-18T02:36:01;6.7;;;6.5;;
48679;SDS011;34475;51.658;5.634;2022-12-18T02:37:03;6.7;;;6.5;;
48679;SDS011;34475;51.658;5.634;2022-12-18T02:38:02;6.7;;;6.5;;
48679;SDS011;34475;51.658;5.634;2022-12-18T02:39:02;6.7;;;6.5;;
48679;SDS011;34475;51.658;5.634;2022-12-18T02:40:01;6.7;;;6.5;;
48679;SDS011;34475;51.658;5.634;2022-12-18T02:41:00;6.7;;;6.5;;
48679;SDS011;34475;51.658;5.634;2022-12-18T02:42:07;6.7;;;6.5;;
48679;SDS011;34475;51.658;5.634;2022-12-18T02:43:11;6.7;;;6.5;;
48679;SDS011;34475;51.658;5.634;2022-12-18T02:44:06;6.7;;;6.5;;
48679;SDS011;34475;51.658;5.634;2022-12-18T02:45:00;6.7;;;6.5;;
48679;SDS011;34475;51.658;5.634;2022-12-18T02:46:01;6.7;;;6.5;;
48679;SDS011;34475;51.658;5.634;2022-12-18T02:47:01;6.7;;;6.5;;
48679;SDS011;34475;51.658;5.634;2022-12-18T02:48:01;6.7;;;6.5;;
48679;SDS011;34475;51.658;5.634;2022-12-18T02:50:08;6.7;;;6.5;;
48679;SDS011;34475;51.658;5.634;2022-12-18T02:52:17;6.7;;;6.5;;
48679;SDS011;34475;51.658;5.634;2022-12-18T02:54:13;6.7;;;6.5;;
48679;SDS011;34475;51.658;5.634;2022-12-18T02:55:08;6.3;;;6.1;;
48679;SDS011;34475;51.658;5.634;2022-12-18T02:57:08;6.3;;;6.1;;
48679;SDS011;34475;51.658;5.634;2022-12-18T02:59:02;6.3;;;6.1;;
48679;SDS011;34475;51.658;5.634;2022-12-18T03:00:16;6.3;;;6.1;;
48679;SDS011;34475;51.658;5.634;2022-12-18T03:01:05;6.3;;;6.1;;
48679;SDS011;34475;51.658;5.634;2022-12-18T03:02:07;6.3;;;6.1;;
48679;SDS011;34475;51.658;5.634;2022-12-18T03:03:05;6.3;;;6.1;;
48679;SDS011;34475;51.658;5.634;2022-12-18T03:04:04;6.3;;;6.1;;
48679;SDS011;34475;51.658;5.634;2022-12-18T03:05:10;6.3;;;6.1;;
48679;SDS011;34475;51.658;5.634;2022-12-18T03:06:06;6.3;;;6.1;;
48679;SDS011;34475;51.658;5.634;2022-12-18T03:07:04;6.3;;;6.1;;
48679;SDS011;34475;51.658;5.634;2022-12-18T03:08:07;6.3;;;6.1;;
48679;SDS011;34475;51.658;5.634;2022-12-18T03:09:07;6.3;;;6.1;;
48679;SDS011;34475;51.658;5.634;2022-12-18T03:10:01;6.3;;;6.1;;
48679;SDS011;34475;51.658;5.634;2022-12-18T03:11:03;6.3;;;6.1;;
48679;SDS011;34475;51.658;5.634;2022-12-18T03:12:17;6.3;;;6.1;;
48679;SDS011;34475;51.658;5.634;2022-12-18T03:13:05;6.3;;;6.1;;
48679;SDS011;34475;51.658;5.634;2022-12-18T03:14:01;6.3;;;6.1;;
48679;SDS011;34475;51.658;5.634;2022-12-18T03:15:19;6.8;;;6.6;;
48679;SDS011;34475;51.658;5.634;2022-12-18T03:16:01;6.8;;;6.6;;
48679;SDS011;34475;51.658;5.634;2022-12-18T03:17:03;6.8;;;6.6;;
48679;SDS011;34475;51.658;5.634;2022-12-18T03:18:06;6.8;;;6.6;;
48679;SDS011;34475;51.658;5.634;2022-12-18T03:19:06;6.8;;;6.6;;
48679;SDS011;34475;51.658;5.634;2022-12-18T03:20:10;6.8;;;6.6;;
48679;SDS011;34475;51.658;5.634;2022-12-18T03:21:03;6.8;;;6.6;;
48679;SDS011;34475;51.658;5.634;2022-12-18T03:22:02;6.8;;;6.6;;
48679;SDS011;34475;51.658;5.634;2022-12-18T03:23:06;6.8;;;6.6;;
48679;SDS011;34475;51.658;5.634;2022-12-18T03:24:01;6.8;;;6.6;;
48679;SDS011;34475;51.658;5.634;2022-12-18T03:25:03;6.8;;;6.6;;
48679;SDS011;34475;51.658;5.634;2022-12-18T03:26:09;6.8;;;6.6;;
48679;SDS011;34475;51.658;5.634;2022-12-18T03:27:02;6.8;;;6.6;;
48679;SDS011;34475;51.658;5.634;2022-12-18T03:28:02;6.8;;;6.6;;
48679;SDS011;34475;51.658;5.634;2022-12-18T03:29:05;6.8;;;6.6;;
48679;SDS011;34475;51.658;5.634;2022-12-18T03:30:08;6.8;;;6.6;;
48679;SDS011;34475;51.658;5.634;2022-12-18T03:31:01;6.8;;;6.6;;
48679;SDS011;34475;51.658;5.634;2022-12-18T03:32:04;6.8;;;6.6;;
48679;SDS011;34475;51.658;5.634;2022-12-18T03:34:04;6.8;;;6.6;;
48679;SDS011;34475;51.658;5.634;2022-12-18T03:35:03;6.3;;;6.1;;
48679;SDS011;34475;51.658;5.634;2022-12-18T03:36:00;6.3;;;6.1;;
48679;SDS011;34475;51.658;5.634;2022-12-18T03:37:01;6.3;;;6.1;;
48679;SDS011;34475;51.658;5.634;2022-12-18T03:38:00;6.3;;;6.1;;
48679;SDS011;34475;51.658;5.634;2022-12-18T03:39:00;6.3;;;6.1;;
48679;SDS011;34475;51.658;5.634;2022-12-18T03:40:00;6.3;;;6.1;;
48679;SDS011;34475;51.658;5.634;2022-12-18T03:41:26;6.3;;;6.1;;
48679;SDS011;34475;51.658;5.634;2022-12-18T03:42:05;6.3;;;6.1;;
48679;SDS011;34475;51.658;5.634;2022-12-18T03:43:08;6.3;;;6.1;;
48679;SDS011;34475;51.658;5.634;2022-12-18T03:44:12;6.3;;;6.1;;
48679;SDS011;34475;51.658;5.634;2022-12-18T03:45:06;6.3;;;6.1;;
48679;SDS011;34475;51.658;5.634;2022-12-18T03:46:08;6.3;;;6.1;;
48679;SDS011;34475;51.658;5.634;2022-12-18T03:47:14;6.3;;;6.1;;
48679;SDS011;34475;51.658;5.634;2022-12-18T03:48:04;6.3;;;6.1;;
48679;SDS011;34475;51.658;5.634;2022-12-18T03:49:08;6.3;;;6.1;;
48679;SDS011;34475;51.658;5.634;2022-12-18T03:50:22;6.3;;;6.1;;
48679;SDS011;34475;51.658;5.634;2022-12-18T03:51:05;6.3;;;6.1;;
48679;SDS011;34475;51.658;5.634;2022-12-18T03:52:06;6.3;;;6.1;;
48679;SDS011;34475;51.658;5.634;2022-12-18T03:53:08;6.3;;;6.1;;
48679;SDS011;34475;51.658;5.634;2022-12-18T03:54:03;6.3;;;6.1;;
48679;SDS011;34475;51.658;5.634;2022-12-18T03:55:02;6.3;;;6.1;;
48679;SDS011;34475;51.658;5.634;2022-12-18T03:56:02;6.3;;;6.1;;
48679;SDS011;34475;51.658;5.634;2022-12-18T03:57:05;6.3;;;6.1;;
48679;SDS011;34475;51.658;5.634;2022-12-18T03:58:01;6.3;;;6.1;;
48679;SDS011;34475;51.658;5.634;2022-12-18T03:59:02;6.3;;;6.1;;
48679;SDS011;34475;51.658;5.634;2022-12-18T04:00:06;6.3;;;6.1;;
48679;SDS011;34475;51.658;5.634;2022-12-18T04:01:02;6.3;;;6.1;;
48679;SDS011;34475;51.658;5.634;2022-12-18T04:02:02;6.3;;;6.1;;
48679;SDS011;34475;51.658;5.634;2022-12-18T04:03:01;6.3;;;6.1;;
48679;SDS011;34475;51.658;5.634;2022-12-18T04:04:01;6.3;;;6.1;;
48679;SDS011;34475;51.658;5.634;2022-12-18T04:05:02;6.3;;;6.1;;
48679;SDS011;34475;51.658;5.634;2022-12-18T04:06:01;6.3;;;6.1;;
48679;SDS011;34475;51.658;5.634;2022-12-18T04:07:01;6.3;;;6.1;;
48679;SDS011;34475;51.658;5.634;2022-12-18T04:08:01;6.3;;;6.1;;
48679;SDS011;34475;51.658;5.634;2022-12-18T04:09:00;6.3;;;6.1;;
48679;SDS011;34475;51.658;5.634;2022-12-18T04:10:02;6.3;;;6.1;;
48679;SDS011;34475;51.658;5.634;2022-12-18T04:11:01;6.3;;;6.1;;
48679;SDS011;34475;51.658;5.634;2022-12-18T04:12:00;6.3;;;6.1;;
48679;SDS011;34475;51.658;5.634;2022-12-18T04:13:00;6.3;;;6.1;;
48679;SDS011;34475;51.658;5.634;2022-12-18T04:14:04;6.3;;;6.1;;
48679;SDS011;34475;51.658;5.634;2022-12-18T04:15:00;6.5;;;6.3;;
48679;SDS011;34475;51.658;5.634;2022-12-18T04:16:01;6.5;;;6.3;;
48679;SDS011;34475;51.658;5.634;2022-12-18T04:17:00;6.5;;;6.3;;
48679;SDS011;34475;51.658;5.634;2022-12-18T04:18:00;6.5;;;6.3;;
48679;SDS011;34475;51.658;5.634;2022-12-18T04:19:00;6.5;;;6.3;;
48679;SDS011;34475;51.658;5.634;2022-12-18T04:20:00;6.5;;;6.3;;
48679;SDS011;34475;51.658;5.634;2022-12-18T04:21:01;6.5;;;6.3;;
48679;SDS011;34475;51.658;5.634;2022-12-18T04:22:00;6.5;;;6.3;;
48679;SDS011;34475;51.658;5.634;2022-12-18T04:23:00;6.5;;;6.3;;
48679;SDS011;34475;51.658;5.634;2022-12-18T04:24:00;6.5;;;6.3;;
48679;SDS011;34475;51.658;5.634;2022-12-18T04:25:00;6.5;;;6.3;;
48679;SDS011;34475;51.658;5.634;2022-12-18T04:26:00;6.5;;;6.3;;
48679;SDS011;34475;51.658;5.634;2022-12-18T04:27:00;6.5;;;6.3;;
48679;SDS011;34475;51.658;5.634;2022-12-18T04:28:00;6.5;;;6.3;;
48679;SDS011;34475;51.658;5.634;2022-12-18T04:29:00;6.5;;;6.3;;
48679;SDS011;34475;51.658;5.634;2022-12-18T04:30:00;6.5;;;6.3;;
48679;SDS011;34475;51.658;5.634;2022-12-18T04:31:00;6.5;;;6.3;;
48679;SDS011;34475;51.658;5.634;2022-12-18T04:32:01;6.5;;;6.3;;
48679;SDS011;34475;51.658;5.634;2022-12-18T04:33:00;6.5;;;6.3;;
48679;SDS011;34475;51.658;5.634;2022-12-18T04:34:00;6.8;;;6.6;;
48679;SDS011;34475;51.658;5.634;2022-12-18T04:35:00;6.8;;;6.6;;
48679;SDS011;34475;51.658;5.634;2022-12-18T04:36:00;6.8;;;6.6;;
48679;SDS011;34475;51.658;5.634;2022-12-18T04:37:00;6.8;;;6.6;;
48679;SDS011;34475;51.658;5.634;2022-12-18T04:38:00;6.8;;;6.6;;
48679;SDS011;34475;51.658;5.634;2022-12-18T04:39:00;6.8;;;6.6;;
48679;SDS011;34475;51.658;5.634;2022-12-18T04:40:00;6.8;;;6.6;;
48679;SDS011;34475;51.658;5.634;2022-12-18T04:41:00;6.8;;;6.6;;
48679;SDS011;34475;51.658;5.634;2022-12-18T04:42:00;6.8;;;6.6;;
48679;SDS011;34475;51.658;5.634;2022-12-18T04:43:00;6.8;;;6.6;;
48679;SDS011;34475;51.658;5.634;2022-12-18T04:44:00;6.8;;;6.6;;
48679;SDS011;34475;51.658;5.634;2022-12-18T04:45:00;6.8;;;6.6;;
48679;SDS011;34475;51.658;5.634;2022-12-18T04:46:03;6.8;;;6.6;;
48679;SDS011;34475;51.658;5.634;2022-12-18T04:47:00;6.8;;;6.6;;
48679;SDS011;34475;51.658;5.634;2022-12-18T04:48:01;6.8;;;6.6;;
48679;SDS011;34475;51.658;5.634;2022-12-18T04:49:00;6.8;;;6.6;;
48679;SDS011;34475;51.658;5.634;2022-12-18T04:50:00;6.8;;;6.6;;
48679;SDS011;34475;51.658;5.634;2022-12-18T04:51:00;6.8;;;6.6;;
48679;SDS011;34475;51.658;5.634;2022-12-18T04:52:00;6.8;;;6.6;;
48679;SDS011;34475;51.658;5.634;2022-12-18T04:53:00;6.8;;;6.6;;
48679;SDS011;34475;51.658;5.634;2022-12-18T04:54:00;6.7;;;6.5;;
48679;SDS011;34475;51.658;5.634;2022-12-18T04:55:00;6.7;;;6.5;;
48679;SDS011;34475;51.658;5.634;2022-12-18T04:56:03;6.7;;;6.5;;
48679;SDS011;34475;51.658;5.634;2022-12-18T04:57:00;6.7;;;6.5;;
48679;SDS011;34475;51.658;5.634;2022-12-18T04:58:00;6.7;;;6.5;;
48679;SDS011;34475;51.658;5.634;2022-12-18T04:59:00;6.7;;;6.5;;
48679;SDS011;34475;51.658;5.634;2022-12-18T05:00:00;6.7;;;6.5;;
48679;SDS011;34475;51.658;5.634;2022-12-18T05:01:00;6.7;;;6.5;;
48679;SDS011;34475;51.658;5.634;2022-12-18T05:02:00;6.7;;;6.5;;
48679;SDS011;34475;51.658;5.634;2022-12-18T05:03:01;6.7;;;6.5;;
48679;SDS011;34475;51.658;5.634;2022-12-18T05:04:01;6.7;;;6.5;;
48679;SDS011;34475;51.658;5.634;2022-12-18T05:05:00;6.7;;;6.5;;
48679;SDS011;34475;51.658;5.634;2022-12-18T05:06:00;6.7;;;6.5;;
48679;SDS011;34475;51.658;5.634;2022-12-18T05:07:00;6.7;;;6.5;;
48679;SDS011;34475;51.658;5.634;2022-12-18T05:08:00;6.7;;;6.5;;
48679;SDS011;34475;51.658;5.634;2022-12-18T05:09:00;6.7;;;6.5;;
48679;SDS011;34475;51.658;5.634;2022-12-18T05:10:00;6.7;;;6.5;;
48679;SDS011;34475;51.658;5.634;2022-12-18T05:11:06;6.7;;;6.5;;
48679;SDS011;34475;51.658;5.634;2022-12-18T05:12:00;6.7;;;6.5;;
48679;SDS011;34475;51.658;5.634;2022-12-18T05:13:01;6.7;;;6.5;;
48679;SDS011;34475;51.658;5.634;2022-12-18T05:14:00;6.6;;;6.4;;
48679;SDS011;34475;51.658;5.634;2022-12-18T05:15:00;6.6;;;6.4;;
48679;SDS011;34475;51.658;5.634;2022-12-18T05:16:01;6.6;;;6.4;;
48679;SDS011;34475;51.658;5.634;2022-12-18T05:17:01;6.6;;;6.4;;
48679;SDS011;34475;51.658;5.634;2022-12-18T05:18:01;6.6;;;6.4;;
48679;SDS011;34475;51.658;5.634;2022-12-18T05:19:00;6.6;;;6.4;;
48679;SDS011;34475;51.658;5.634;2022-12-18T05:20:00;6.6;;;6.4;;
48679;SDS011;34475;51.658;5.634;2022-12-18T05:21:00;6.6;;;6.4;;
48679;SDS011;34475;51.658;5.634;2022-12-18T05:22:01;6.6;;;6.4;;
48679;SDS011;34475;51.658;5.634;2022-12-18T05:23:01;6.6;;;6.4;;
48679;SDS011;34475;51.658;5.634;2022-12-18T05:24:00;6.6;;;6.4;;
48679;SDS011;34475;51.658;5.634;2022-12-18T05:25:00;6.6;;;6.4;;
48679;SDS011;34475;51.658;5.634;2022-12-18T05:26:02;6.6;;;6.4;;
48679;SDS011;34475;51.658;5.634;2022-12-18T05:27:00;6.6;;;6.4;;
48679;SDS011;34475;51.658;5.634;2022-12-18T05:28:00;6.6;;;6.4;;
48679;SDS011;34475;51.658;5.634;2022-12-18T05:29:00;6.6;;;6.4;;
48679;SDS011;34475;51.658;5.634;2022-12-18T05:30:00;6.6;;;6.4;;
48679;SDS011;34475;51.658;5.634;2022-12-18T05:31:02;6.6;;;6.4;;
48679;SDS011;34475;51.658;5.634;2022-12-18T05:32:00;6.6;;;6.4;;
48679;SDS011;34475;51.658;5.634;2022-12-18T05:33:00;6.6;;;6.4;;
48679;SDS011;34475;51.658;5.634;2022-12-18T05:34:00;6.5;;;6.3;;
48679;SDS011;34475;51.658;5.634;2022-12-18T05:35:00;6.5;;;6.3;;
48679;SDS011;34475;51.658;5.634;2022-12-18T05:36:02;6.5;;;6.3;;
48679;SDS011;34475;51.658;5.634;2022-12-18T05:37:00;6.5;;;6.3;;
48679;SDS011;34475;51.658;5.634;2022-12-18T05:38:00;6.5;;;6.3;;
48679;SDS011;34475;51.658;5.634;2022-12-18T05:39:00;6.5;;;6.3;;
48679;SDS011;34475;51.658;5.634;2022-12-18T05:40:01;6.5;;;6.3;;
48679;SDS011;34475;51.658;5.634;2022-12-18T05:41:00;6.5;;;6.3;;
48679;SDS011;34475;51.658;5.634;2022-12-18T05:42:00;6.5;;;6.3;;
48679;SDS011;34475;51.658;5.634;2022-12-18T05:43:01;6.5;;;6.3;;
48679;SDS011;34475;51.658;5.634;2022-12-18T05:44:00;6.5;;;6.3;;
48679;SDS011;34475;51.658;5.634;2022-12-18T05:45:00;6.5;;;6.3;;
48679;SDS011;34475;51.658;5.634;2022-12-18T05:46:03;6.5;;;6.3;;
48679;SDS011;34475;51.658;5.634;2022-12-18T05:47:00;6.5;;;6.3;;
48679;SDS011;34475;51.658;5.634;2022-12-18T05:48:00;6.5;;;6.3;;
48679;SDS011;34475;51.658;5.634;2022-12-18T05:49:01;6.5;;;6.3;;
48679;SDS011;34475;51.658;5.634;2022-12-18T05:50:00;6.5;;;6.3;;
48679;SDS011;34475;51.658;5.634;2022-12-18T05:51:09;6.5;;;6.3;;
48679;SDS011;34475;51.658;5.634;2022-12-18T05:52:00;6.5;;;6.3;;
48679;SDS011;34475;51.658;5.634;2022-12-18T05:53:00;6.5;;;6.3;;
48679;SDS011;34475;51.658;5.634;2022-12-18T05:54:00;6.3;;;6.1;;
48679;SDS011;34475;51.658;5.634;2022-12-18T05:55:00;6.3;;;6.1;;
48679;SDS011;34475;51.658;5.634;2022-12-18T05:56:02;6.3;;;6.1;;
48679;SDS011;34475;51.658;5.634;2022-12-18T05:57:00;6.3;;;6.1;;
48679;SDS011;34475;51.658;5.634;2022-12-18T05:58:00;6.3;;;6.1;;
48679;SDS011;34475;51.658;5.634;2022-12-18T05:59:00;6.3;;;6.1;;
48679;SDS011;34475;51.658;5.634;2022-12-18T06:00:00;6.3;;;6.1;;
48679;SDS011;34475;51.658;5.634;2022-12-18T06:01:11;6.3;;;6.1;;
48679;SDS011;34475;51.658;5.634;2022-12-18T06:02:00;6.3;;;6.1;;
48679;SDS011;34475;51.658;5.634;2022-12-18T06:03:01;6.3;;;6.1;;
48679;SDS011;34475;51.658;5.634;2022-12-18T06:04:00;6.3;;;6.1;;
48679;SDS011;34475;51.658;5.634;2022-12-18T06:05:00;6.3;;;6.1;;
48679;SDS011;34475;51.658;5.634;2022-12-18T06:06:00;6.3;;;6.1;;
48679;SDS011;34475;51.658;5.634;2022-12-18T06:07:00;6.3;;;6.1;;
48679;SDS011;34475;51.658;5.634;2022-12-18T06:08:00;6.3;;;6.1;;
48679;SDS011;34475;51.658;5.634;2022-12-18T06:09:01;6.3;;;6.1;;
48679;SDS011;34475;51.658;5.634;2022-12-18T06:10:00;6.3;;;6.1;;
48679;SDS011;34475;51.658;5.634;2022-12-18T06:11:00;6.3;;;6.1;;
48679;SDS011;34475;51.658;5.634;2022-12-18T06:12:00;6.3;;;6.1;;
48679;SDS011;34475;51.658;5.634;2022-12-18T06:13:00;6.3;;;6.1;;
48679;SDS011;34475;51.658;5.634;2022-12-18T06:14:01;6.0;;;5.8;;
48679;SDS011;34475;51.658;5.634;2022-12-18T06:15:00;6.0;;;5.8;;
48679;SDS011;34475;51.658;5.634;2022-12-18T06:16:02;6.0;;;5.8;;
48679;SDS011;34475;51.658;5.634;2022-12-18T06:17:00;6.0;;;5.8;;
48679;SDS011;34475;51.658;5.634;2022-12-18T06:18:01;6.0;;;5.8;;
48679;SDS011;34475;51.658;5.634;2022-12-18T06:19:03;6.0;;;5.8;;
48679;SDS011;34475;51.658;5.634;2022-12-18T06:20:01;6.0;;;5.8;;
48679;SDS011;34475;51.658;5.634;2022-12-18T06:21:00;6.0;;;5.8;;
48679;SDS011;34475;51.658;5.634;2022-12-18T06:22:00;6.0;;;5.8;;
48679;SDS011;34475;51.658;5.634;2022-12-18T06:23:00;6.0;;;5.8;;
48679;SDS011;34475;51.658;5.634;2022-12-18T06:24:00;6.0;;;5.8;;
48679;SDS011;34475;51.658;5.634;2022-12-18T06:25:00;6.0;;;5.8;;
48679;SDS011;34475;51.658;5.634;2022-12-18T06:26:11;6.0;;;5.8;;
48679;SDS011;34475;51.658;5.634;2022-12-18T06:27:00;6.0;;;5.8;;
48679;SDS011;34475;51.658;5.634;2022-12-18T06:28:00;6.0;;;5.8;;
48679;SDS011;34475;51.658;5.634;2022-12-18T06:29:00;6.0;;;5.8;;